createdAt,value
2023-01-25T00:00:01.787Z,12.37
2023-01-25T00:02:31.504Z,14.00
2023-01-25T00:04:58.146Z,13.67
2023-01-25T00:07:24.849Z,12.13
2023-01-25T00:09:51.463Z,12.07
2023-01-25T00:12:20.868Z,12.43
2023-01-25T00:14:47.429Z,11.20
2023-01-25T00:17:14.110Z,10.73
2023-01-25T00:19:43.782Z,12.43
2023-01-25T00:22:10.475Z,12.40
2023-01-25T00:24:37.187Z,13.10
2023-01-25T00:27:03.958Z,11.97
2023-01-25T00:29:31.682Z,13.37
2023-01-25T00:32:02.165Z,12.10
2023-01-25T00:34:29.803Z,10.47
2023-01-25T00:37:01.433Z,11.87
2023-01-25T00:39:28.691Z,11.10
2023-01-25T00:41:55.663Z,10.57
2023-01-25T00:44:23.289Z,11.47
2023-01-25T00:46:52.214Z,10.80
2023-01-25T00:49:24.886Z,11.30
2023-01-25T00:51:52.648Z,10.67
2023-01-25T00:54:20.417Z,10.70
2023-01-25T00:56:47.319Z,10.80
2023-01-25T00:59:14.909Z,11.50
2023-01-25T01:01:42.340Z,10.47
2023-01-25T01:04:09.295Z,10.20
2023-01-25T01:06:37.743Z,8.63
2023-01-25T01:09:06.473Z,10.70
2023-01-25T01:11:33.779Z,11.97
2023-01-25T01:14:00.413Z,10.73
2023-01-25T01:16:27.148Z,11.23
2023-01-25T01:18:54.308Z,10.13
2023-01-25T01:21:21.706Z,11.70
2023-01-25T01:23:48.813Z,11.20
2023-01-25T01:26:19.420Z,10.30
2023-01-25T01:28:46.629Z,13.50
2023-01-25T01:31:18.261Z,11.57
2023-01-25T01:33:53.944Z,12.20
2023-01-25T01:36:23.498Z,12.40
2023-01-25T01:38:50.322Z,11.00
2023-01-25T01:41:17.476Z,11.37
2023-01-25T01:43:45.035Z,12.13
2023-01-25T01:46:23.218Z,11.43
2023-01-25T01:49:01.410Z,10.50
2023-01-25T01:51:47.060Z,9.77
2023-01-25T01:54:24.192Z,10.17
2023-01-25T01:57:16.322Z,10.47
2023-01-25T01:59:50.883Z,10.93
2023-01-25T02:02:17.601Z,11.30
2023-01-25T02:04:48.796Z,8.73
2023-01-25T02:07:21.148Z,10.20
2023-01-25T02:09:50.451Z,10.17
2023-01-25T02:12:18.791Z,10.17
2023-01-25T02:14:52.883Z,11.10
2023-01-25T02:17:24.359Z,11.40
2023-01-25T02:20:00.839Z,9.90
2023-01-25T02:22:40.840Z,10.37
2023-01-25T02:25:11.475Z,11.27
2023-01-25T02:27:46.607Z,10.30
2023-01-25T02:30:13.489Z,8.73
2023-01-25T02:32:43.110Z,9.10
2023-01-25T02:35:22.582Z,10.53
2023-01-25T02:37:50.698Z,10.13
2023-01-25T02:40:18.780Z,9.73
2023-01-25T02:42:46.533Z,11.70
2023-01-25T02:45:18.206Z,8.10
2023-01-25T02:47:45.642Z,10.30
2023-01-25T02:50:14.961Z,9.10
2023-01-25T02:52:41.759Z,11.47
2023-01-25T02:55:09.814Z,8.80
2023-01-25T02:57:38.752Z,9.70
2023-01-25T03:00:07.227Z,10.83
2023-01-25T03:02:34.100Z,10.53
2023-01-25T03:05:00.763Z,10.20
2023-01-25T03:07:27.965Z,8.10
2023-01-25T03:09:55.731Z,8.70
2023-01-25T03:12:23.483Z,9.90
2023-01-25T03:14:50.182Z,8.87
2023-01-25T03:17:18.479Z,9.43
2023-01-25T03:19:45.933Z,8.17
2023-01-25T03:22:12.559Z,9.03
2023-01-25T03:24:42.874Z,8.77
2023-01-25T03:27:14.340Z,7.50
2023-01-25T03:29:47.434Z,6.77
2023-01-25T03:32:19.090Z,7.43
2023-01-25T03:34:45.759Z,7.00
2023-01-25T03:37:13.655Z,8.17
2023-01-25T03:39:40.835Z,7.30
2023-01-25T03:42:07.977Z,6.87
2023-01-25T03:44:34.632Z,8.17
2023-01-25T03:47:01.409Z,8.70
2023-01-25T03:49:35.179Z,8.40
2023-01-25T03:52:03.301Z,8.23
2023-01-25T03:54:36.742Z,8.17
2023-01-25T03:57:03.537Z,8.13
2023-01-25T03:59:33.318Z,6.90
2023-01-25T04:01:59.986Z,7.30
2023-01-25T04:04:26.703Z,10.10
2023-01-25T04:06:53.700Z,8.47
2023-01-25T04:09:23.041Z,7.50
2023-01-25T04:11:52.538Z,8.07
2023-01-25T04:14:31.818Z,7.63
2023-01-25T04:17:08.356Z,8.00
2023-01-25T04:19:42.102Z,6.70
2023-01-25T04:22:12.984Z,7.10
2023-01-25T04:24:39.753Z,7.33
2023-01-25T04:27:06.644Z,9.07
2023-01-25T04:29:41.783Z,6.80
2023-01-25T04:32:14.338Z,8.70
2023-01-25T04:34:41.100Z,9.40
2023-01-25T04:37:12.674Z,7.33
2023-01-25T04:39:49.943Z,8.00
2023-01-25T04:42:16.851Z,7.83
2023-01-25T04:44:46.279Z,7.47
2023-01-25T04:47:13.383Z,7.27
2023-01-25T04:49:40.108Z,13.00
2023-01-25T04:52:07.034Z,7.90
2023-01-25T04:54:34.104Z,8.60
2023-01-25T04:57:01.067Z,8.43
2023-01-25T04:59:27.990Z,6.50
2023-01-25T05:01:55.129Z,8.00
2023-01-25T05:04:21.730Z,7.87
2023-01-25T05:06:50.025Z,7.53
2023-01-25T05:09:17.731Z,7.73
2023-01-25T05:11:45.466Z,8.20
2023-01-25T05:14:20.465Z,8.00
2023-01-25T05:16:47.584Z,8.43
2023-01-25T05:19:14.796Z,7.73
2023-01-25T05:21:59.343Z,8.23
2023-01-25T05:24:45.209Z,8.67
2023-01-25T05:27:17.420Z,7.80
2023-01-25T05:29:53.251Z,7.67
2023-01-25T05:32:23.876Z,8.70
2023-01-25T05:34:50.921Z,9.90
2023-01-25T05:37:20.575Z,8.23
2023-01-25T05:39:52.388Z,8.00
2023-01-25T05:42:19.371Z,9.10
2023-01-25T05:44:47.923Z,8.27
2023-01-25T05:47:17.761Z,7.50
2023-01-25T05:49:44.872Z,8.87
2023-01-25T05:52:17.658Z,8.93
2023-01-25T05:54:44.535Z,9.17
2023-01-25T05:57:16.441Z,7.87
2023-01-25T05:59:43.891Z,8.73
2023-01-25T06:02:13.155Z,8.50
2023-01-25T06:04:40.870Z,9.07
2023-01-25T06:07:09.065Z,7.20
2023-01-25T06:09:36.349Z,7.47
2023-01-25T06:12:04.086Z,8.20
2023-01-25T06:14:30.679Z,10.03
2023-01-25T06:16:57.930Z,9.60
2023-01-25T06:19:24.463Z,12.93
2023-01-25T06:22:00.139Z,10.00
2023-01-25T06:24:26.834Z,10.67
2023-01-25T06:26:53.446Z,12.60
2023-01-25T06:29:20.195Z,12.40
2023-01-25T06:31:46.845Z,8.70
2023-01-25T06:34:13.453Z,9.30
2023-01-25T06:36:42.406Z,9.00
2023-01-25T06:39:09.336Z,11.60
2023-01-25T06:41:36.064Z,10.63
2023-01-25T06:44:03.021Z,9.00
2023-01-25T06:46:32.108Z,8.93
2023-01-25T06:48:58.728Z,11.00
2023-01-25T06:51:25.340Z,10.40
2023-01-25T06:53:52.001Z,10.97
2023-01-25T06:56:22.055Z,10.40
2023-01-25T06:58:49.503Z,10.60
2023-01-25T07:01:19.634Z,12.10
2023-01-25T07:03:51.398Z,13.40
2023-01-25T07:06:18.909Z,11.37
2023-01-25T07:08:45.642Z,10.90
2023-01-25T07:11:14.002Z,11.70
2023-01-25T07:13:42.162Z,12.40
2023-01-25T07:16:13.320Z,13.00
2023-01-25T07:18:40.562Z,13.57
2023-01-25T07:21:16.119Z,12.67
2023-01-25T07:23:43.074Z,12.40
2023-01-25T07:26:18.631Z,12.97
2023-01-25T07:28:46.353Z,11.50
2023-01-25T07:31:13.512Z,11.10
2023-01-25T07:33:40.168Z,13.87
2023-01-25T07:36:09.107Z,10.43
2023-01-25T07:38:36.688Z,10.20
2023-01-25T07:41:03.833Z,9.50
2023-01-25T07:43:30.587Z,10.80
2023-01-25T07:46:05.400Z,9.10
2023-01-25T07:48:33.187Z,9.20
2023-01-25T07:51:23.833Z,11.40
2023-01-25T07:53:55.615Z,11.33
2023-01-25T07:56:24.845Z,10.67
2023-01-25T07:58:56.738Z,9.70
2023-01-25T08:01:25.552Z,10.33
2023-01-25T08:03:53.107Z,11.00
2023-01-25T08:06:30.662Z,13.10
2023-01-25T08:08:58.719Z,9.50
2023-01-25T08:11:28.277Z,9.80
2023-01-25T08:13:55.703Z,8.60
2023-01-25T08:16:25.902Z,9.70
2023-01-25T08:18:55.138Z,10.53
2023-01-25T08:21:24.317Z,10.70
2023-01-25T08:23:51.829Z,9.50
2023-01-25T08:26:18.635Z,11.50
2023-01-25T08:28:45.368Z,9.27
2023-01-25T08:31:18.725Z,10.30
2023-01-25T08:33:46.778Z,10.20
2023-01-25T08:36:15.070Z,10.10
2023-01-25T08:38:41.775Z,11.10
2023-01-25T08:41:17.834Z,11.37
2023-01-25T08:43:45.848Z,11.50
2023-01-25T08:46:13.748Z,9.90
2023-01-25T08:48:40.711Z,10.90
2023-01-25T08:51:15.961Z,10.10
2023-01-25T08:53:43.274Z,12.57
2023-01-25T08:56:12.503Z,8.83
2023-01-25T08:58:41.473Z,11.43
2023-01-25T09:01:10.805Z,11.40
2023-01-25T09:03:39.925Z,10.80
2023-01-25T09:06:07.692Z,12.23
2023-01-25T09:08:35.133Z,9.80
2023-01-25T09:11:21.875Z,10.20
2023-01-25T09:13:49.585Z,9.27
2023-01-25T09:16:19.930Z,11.90
2023-01-25T09:18:49.748Z,11.33
2023-01-25T09:21:18.768Z,13.40
2023-01-25T09:24:05.364Z,10.10
2023-01-25T09:26:34.581Z,11.27
2023-01-25T09:29:01.331Z,12.10
2023-01-25T09:31:29.369Z,9.17
2023-01-25T09:33:59.305Z,12.00
2023-01-25T09:36:26.168Z,12.23
2023-01-25T09:38:53.109Z,13.57
2023-01-25T09:41:51.658Z,14.17
2023-01-25T09:44:31.503Z,14.07
2023-01-25T09:47:17.944Z,10.40
2023-01-25T09:49:44.536Z,10.57
2023-01-25T09:52:32.600Z,10.97
2023-01-25T09:54:59.440Z,11.80
2023-01-25T09:57:37.448Z,12.87
2023-01-25T10:00:17.980Z,10.70
2023-01-25T10:03:10.550Z,12.27
2023-01-25T10:05:46.841Z,10.90
2023-01-25T10:08:44.463Z,10.63
2023-01-25T10:11:21.679Z,12.43
2023-01-25T10:13:48.552Z,12.80
2023-01-25T10:16:41.189Z,11.27
2023-01-25T10:19:26.106Z,14.27
2023-01-25T10:22:01.700Z,14.70
2023-01-25T10:24:52.203Z,12.27
2023-01-25T10:27:34.084Z,11.00
2023-01-25T10:30:26.442Z,13.10
2023-01-25T10:32:57.380Z,13.17
2023-01-25T10:35:35.869Z,14.50
2023-01-25T10:38:13.662Z,13.10
2023-01-25T10:40:46.669Z,13.03
2023-01-25T10:43:22.453Z,13.33
2023-01-25T10:45:50.235Z,12.37
2023-01-25T10:48:28.382Z,12.77
2023-01-25T10:50:57.460Z,10.60
2023-01-25T10:53:24.263Z,14.03
2023-01-25T10:56:09.294Z,14.57
2023-01-25T10:58:37.168Z,13.40
2023-01-25T11:01:13.734Z,13.37
2023-01-25T11:03:46.528Z,12.70
2023-01-25T11:06:13.228Z,13.30
2023-01-25T11:08:43.047Z,13.67
2023-01-25T11:11:31.624Z,13.90
2023-01-25T11:13:58.249Z,12.50
2023-01-25T11:16:31.888Z,14.03
2023-01-25T11:19:00.719Z,16.00
2023-01-25T11:21:30.271Z,13.83
2023-01-25T11:24:23.283Z,13.97
2023-01-25T11:26:49.875Z,12.60
2023-01-25T11:29:22.332Z,14.03
2023-01-25T11:31:53.824Z,11.80
2023-01-25T11:34:25.608Z,14.13
2023-01-25T11:37:06.557Z,11.60
2023-01-25T11:39:55.074Z,14.03
2023-01-25T11:42:30.728Z,12.70
2023-01-25T11:45:03.527Z,13.13
2023-01-25T11:47:57.185Z,16.57
2023-01-25T11:50:45.305Z,13.60
2023-01-25T11:53:17.953Z,12.17
2023-01-25T11:56:16.647Z,12.67
2023-01-25T11:58:52.009Z,12.87
2023-01-25T12:01:24.640Z,14.37
2023-01-25T12:04:25.217Z,15.00
2023-01-25T12:07:06.398Z,14.17
2023-01-25T12:09:59.195Z,14.10
2023-01-25T12:12:43.920Z,13.63
2023-01-25T12:15:21.143Z,12.87
2023-01-25T12:18:12.629Z,14.70
2023-01-25T12:21:00.296Z,15.80
2023-01-25T12:24:04.843Z,15.97
2023-01-25T12:26:40.530Z,12.47
2023-01-25T12:29:16.202Z,11.27
2023-01-25T12:31:51.690Z,13.23
2023-01-25T12:34:25.300Z,12.70
2023-01-25T12:36:51.978Z,13.50
2023-01-25T12:39:33.694Z,12.23
2023-01-25T12:42:07.641Z,13.63
2023-01-25T12:44:44.064Z,12.03
2023-01-25T12:47:48.515Z,11.93
2023-01-25T12:50:28.780Z,12.43
2023-01-25T12:53:21.520Z,11.00
2023-01-25T12:55:49.661Z,10.83
2023-01-25T12:58:32.903Z,11.93
2023-01-25T13:01:30.912Z,11.93
2023-01-25T13:04:27.293Z,12.20
2023-01-25T13:07:03.670Z,13.77
2023-01-25T13:09:42.995Z,11.77
2023-01-25T13:12:11.919Z,12.20
2023-01-25T13:14:42.305Z,12.00
2023-01-25T13:17:38.253Z,12.03
2023-01-25T13:20:39.083Z,12.07
2023-01-25T13:23:45.971Z,11.33
2023-01-25T13:26:24.733Z,12.07
2023-01-25T13:28:52.465Z,11.80
2023-01-25T13:31:51.163Z,12.43
2023-01-25T13:34:37.398Z,12.90
2023-01-25T13:37:15.893Z,12.60
2023-01-25T13:39:44.390Z,12.73
2023-01-25T13:42:10.926Z,11.30
2023-01-25T13:44:45.211Z,11.63
2023-01-25T13:47:14.249Z,12.57
2023-01-25T13:49:41.995Z,10.43
2023-01-25T13:52:15.897Z,12.80
2023-01-25T13:54:47.035Z,11.77
2023-01-25T13:57:19.589Z,13.03
2023-01-25T13:59:46.539Z,14.20
2023-01-25T14:02:23.440Z,12.90
2023-01-25T14:04:51.768Z,14.27
2023-01-25T14:07:21.371Z,15.47
2023-01-25T14:09:49.485Z,12.07
2023-01-25T14:12:40.635Z,12.23
2023-01-25T14:15:30.208Z,13.10
2023-01-25T14:18:19.223Z,11.20
2023-01-25T14:20:48.471Z,12.87
2023-01-25T14:23:30.863Z,14.10
2023-01-25T14:25:59.271Z,12.77
2023-01-25T14:28:26.860Z,14.43
2023-01-25T14:30:56.478Z,14.60
2023-01-25T14:33:29.704Z,12.80
2023-01-25T14:36:16.121Z,12.10
2023-01-25T14:38:50.803Z,13.50
2023-01-25T14:41:34.677Z,15.63
2023-01-25T14:44:10.580Z,14.60
2023-01-25T14:46:38.580Z,18.00
2023-01-25T14:49:14.967Z,15.50
2023-01-25T14:51:59.778Z,14.70
2023-01-25T14:54:29.422Z,14.40
2023-01-25T14:57:05.231Z,15.20
2023-01-25T14:59:41.377Z,13.23
2023-01-25T15:02:32.917Z,13.97
2023-01-25T15:05:14.677Z,14.67
2023-01-25T15:07:54.300Z,18.90
2023-01-25T15:10:29.795Z,15.57
2023-01-25T15:13:15.549Z,16.33
2023-01-25T15:15:57.740Z,20.10
2023-01-25T15:18:53.914Z,16.73
2023-01-25T15:21:24.649Z,18.10
2023-01-25T15:23:52.411Z,13.63
2023-01-25T15:26:23.391Z,15.30
2023-01-25T15:28:52.309Z,11.93
2023-01-25T15:31:23.463Z,14.53
2023-01-25T15:33:50.466Z,16.67
2023-01-25T15:36:18.548Z,21.60
2023-01-25T15:38:45.946Z,15.10
2023-01-25T15:41:13.799Z,13.10
2023-01-25T15:43:40.958Z,13.93
2023-01-25T15:46:23.905Z,14.10
2023-01-25T15:48:51.499Z,14.67
2023-01-25T15:51:19.121Z,32.97
2023-01-25T15:53:46.836Z,14.30
2023-01-25T15:56:19.503Z,14.13
2023-01-25T15:58:51.544Z,15.10
2023-01-25T16:01:18.600Z,14.57
2023-01-25T16:03:45.334Z,13.40
2023-01-25T16:06:40.649Z,12.83
2023-01-25T16:09:19.331Z,12.40
2023-01-25T16:11:48.168Z,12.47
2023-01-25T16:14:14.821Z,14.20
2023-01-25T16:16:49.270Z,14.03
2023-01-25T16:19:18.327Z,14.30
2023-01-25T16:21:45.128Z,15.37
2023-01-25T16:24:11.967Z,24.20
2023-01-25T16:26:44.214Z,23.13
2023-01-25T16:29:11.545Z,14.40
2023-01-25T16:31:38.328Z,13.33
2023-01-25T16:34:05.083Z,13.87
2023-01-25T16:36:32.960Z,13.97
2023-01-25T16:39:13.369Z,15.37
2023-01-25T16:41:39.948Z,14.43
2023-01-25T16:44:06.712Z,14.60
2023-01-25T16:46:33.553Z,14.13
2023-01-25T16:49:00.496Z,15.50
2023-01-25T16:51:28.433Z,13.73
2023-01-25T16:53:58.035Z,13.00
2023-01-25T16:56:29.673Z,13.93
2023-01-25T16:59:00.533Z,13.23
2023-01-25T17:01:27.599Z,14.57
2023-01-25T17:03:55.897Z,18.60
2023-01-25T17:06:26.799Z,16.33
2023-01-25T17:08:57.313Z,16.90
2023-01-25T17:11:25.228Z,17.53
2023-01-25T17:13:54.554Z,16.10
2023-01-25T17:16:23.226Z,14.90
2023-01-25T17:18:54.943Z,17.33
2023-01-25T17:21:22.673Z,16.27
2023-01-25T17:23:50.169Z,19.23
2023-01-25T17:26:19.499Z,18.50
2023-01-25T17:28:46.973Z,18.50
2023-01-25T17:31:14.637Z,17.50
2023-01-25T17:33:41.336Z,22.90
2023-01-25T17:36:09.266Z,17.63
2023-01-25T17:38:35.925Z,17.50
2023-01-25T17:41:05.441Z,16.40
2023-01-25T17:43:34.409Z,17.73
2023-01-25T17:46:14.729Z,18.13
2023-01-25T17:48:41.631Z,20.50
2023-01-25T17:51:11.236Z,15.10
2023-01-25T17:53:37.851Z,16.47
2023-01-25T17:56:05.659Z,14.83
2023-01-25T17:58:35.410Z,15.37
2023-01-25T18:01:13.750Z,14.70
2023-01-25T18:03:41.789Z,13.73
2023-01-25T18:06:09.550Z,16.30
2023-01-25T18:08:44.850Z,14.43
2023-01-25T18:11:15.302Z,11.73
2023-01-25T18:13:45.373Z,15.23
2023-01-25T18:16:12.990Z,14.10
2023-01-25T18:18:42.065Z,14.60
2023-01-25T18:21:11.674Z,14.60
2023-01-25T18:23:39.964Z,13.20
2023-01-25T18:26:16.014Z,13.00
2023-01-25T18:28:42.652Z,12.50
2023-01-25T18:31:10.489Z,14.53
2023-01-25T18:33:38.791Z,15.77
2023-01-25T18:36:05.855Z,12.57
2023-01-25T18:38:35.138Z,12.90
2023-01-25T18:41:01.746Z,13.37
2023-01-25T18:43:28.416Z,14.80
2023-01-25T18:45:56.881Z,14.00
2023-01-25T18:48:30.592Z,13.83
2023-01-25T18:51:12.816Z,14.17
2023-01-25T18:53:42.508Z,17.33
2023-01-25T18:56:13.257Z,14.03
2023-01-25T18:58:40.120Z,14.13
2023-01-25T19:01:18.655Z,14.70
2023-01-25T19:03:47.046Z,14.00
2023-01-25T19:06:15.090Z,14.00
2023-01-25T19:08:44.137Z,15.87
2023-01-25T19:11:13.659Z,16.20
2023-01-25T19:13:42.221Z,17.87
2023-01-25T19:16:15.550Z,14.20
2023-01-25T19:18:46.988Z,14.90
2023-01-25T19:21:22.488Z,15.97
2023-01-25T19:23:49.747Z,15.50
2023-01-25T19:26:18.282Z,15.60
2023-01-25T19:28:46.019Z,14.00
2023-01-25T19:31:15.951Z,14.73
2023-01-25T19:33:43.072Z,15.97
2023-01-25T19:36:18.308Z,14.33
2023-01-25T19:38:46.832Z,15.50
2023-01-25T19:41:15.939Z,14.97
2023-01-25T19:43:43.591Z,13.03
2023-01-25T19:46:12.488Z,12.67
2023-01-25T19:48:40.825Z,14.53
2023-01-25T19:51:15.308Z,14.63
2023-01-25T19:53:47.426Z,14.77
2023-01-25T19:56:16.376Z,15.87
2023-01-25T19:58:44.334Z,15.10
2023-01-25T20:01:14.051Z,15.10
2023-01-25T20:03:41.657Z,14.37
2023-01-25T20:06:09.444Z,13.77
2023-01-25T20:08:39.098Z,14.47
2023-01-25T20:11:17.520Z,14.27
2023-01-25T20:13:44.246Z,14.03
2023-01-25T20:16:12.224Z,15.50
2023-01-25T20:18:39.190Z,15.07
2023-01-25T20:21:09.957Z,14.57
2023-01-25T20:23:39.194Z,12.27
2023-01-25T20:26:08.672Z,13.60
2023-01-25T20:28:36.813Z,13.60
2023-01-25T20:31:04.584Z,15.00
2023-01-25T20:33:34.691Z,14.73
2023-01-25T20:36:02.527Z,14.77
2023-01-25T20:38:33.484Z,13.53
2023-01-25T20:41:05.434Z,13.03
2023-01-25T20:43:32.375Z,15.40
2023-01-25T20:46:00.103Z,16.70
2023-01-25T20:48:28.101Z,14.30
2023-01-25T20:51:02.339Z,14.67
2023-01-25T20:53:30.048Z,14.87
2023-01-25T20:56:00.112Z,14.50
2023-01-25T20:58:28.200Z,14.93
2023-01-25T21:00:55.725Z,14.77
2023-01-25T21:03:22.921Z,14.60
2023-01-25T21:05:54.698Z,15.33
2023-01-25T21:08:22.178Z,14.93
2023-01-25T21:10:50.025Z,14.20
2023-01-25T21:13:17.348Z,15.00
2023-01-25T21:15:44.035Z,15.50
2023-01-25T21:18:10.766Z,14.70
2023-01-25T21:20:37.407Z,14.47
2023-01-25T21:23:04.141Z,16.50
2023-01-25T21:25:30.820Z,15.33
2023-01-25T21:27:57.949Z,15.10
2023-01-25T21:30:24.565Z,15.27
2023-01-25T21:32:51.124Z,14.60
2023-01-25T21:35:17.772Z,12.60
2023-01-25T21:37:46.179Z,13.50
2023-01-25T21:40:13.696Z,14.67
2023-01-25T21:42:40.363Z,13.40
2023-01-25T21:45:27.510Z,14.43
2023-01-25T21:47:58.780Z,13.33
2023-01-25T21:50:45.090Z,14.63
2023-01-25T21:53:11.661Z,15.93
2023-01-25T21:55:38.259Z,16.80
2023-01-25T21:58:04.900Z,14.57
2023-01-25T22:00:31.655Z,16.30
2023-01-25T22:02:58.292Z,13.03
2023-01-25T22:05:24.869Z,14.00
2023-01-25T22:07:51.497Z,15.13
2023-01-25T22:10:18.381Z,13.03
2023-01-25T22:12:45.755Z,15.40
2023-01-25T22:15:12.352Z,15.87
2023-01-25T22:17:38.941Z,15.37
2023-01-25T22:20:06.230Z,14.67
2023-01-25T22:22:32.809Z,15.57
2023-01-25T22:24:59.488Z,15.10
2023-01-25T22:27:57.036Z,15.03
2023-01-25T22:30:23.675Z,14.60
2023-01-25T22:32:50.279Z,14.33
2023-01-25T22:35:16.914Z,13.93
2023-01-25T22:37:43.528Z,14.07
2023-01-25T22:40:11.065Z,15.93
2023-01-25T22:42:37.816Z,16.33
2023-01-25T22:45:05.067Z,15.20
2023-01-25T22:47:31.615Z,16.10
2023-01-25T22:49:58.211Z,14.73
2023-01-25T22:52:24.861Z,16.60
2023-01-25T22:54:51.803Z,14.50
2023-01-25T22:57:18.661Z,15.30
2023-01-25T22:59:45.224Z,16.50
2023-01-25T23:02:11.827Z,14.87
2023-01-25T23:04:38.473Z,15.83
2023-01-25T23:07:12.269Z,15.23
2023-01-25T23:09:40.328Z,16.13
2023-01-25T23:12:07.139Z,16.97
2023-01-25T23:14:51.958Z,15.70
2023-01-25T23:17:42.095Z,14.97
2023-01-25T23:20:11.107Z,16.70
2023-01-25T23:22:37.983Z,16.93
2023-01-25T23:25:06.119Z,14.70
2023-01-25T23:27:32.914Z,15.77
2023-01-25T23:29:59.568Z,18.07
2023-01-25T23:32:26.198Z,17.23
2023-01-25T23:34:53.251Z,16.40
2023-01-25T23:37:21.896Z,17.37
2023-01-25T23:39:50.235Z,17.27
2023-01-25T23:42:19.149Z,17.20
2023-01-25T23:44:45.830Z,15.60
2023-01-25T23:47:12.440Z,16.50
2023-01-25T23:49:39.203Z,17.40
2023-01-25T23:52:05.786Z,16.07
2023-01-25T23:54:32.423Z,15.33
2023-01-25T23:56:59.058Z,18.30
2023-01-25T23:59:25.701Z,16.30
